Time;durP1;ratioP1;P1;durP2;ratioP2;P2;SDS_P1;SDS_P2;PMS_P1;PMS_P2;Temp;Humidity;BMP_temperature;BMP_pressure;BME280_temperature;BME280_humidity;BME280_pressure;Samples;Min_cycle;Max_cycle;Signal;HPM_P1;HPM_P2
2022/07/14 00:00:22;;;;;;;2.92;2.58;;;26.10;31.40;;;;;;5089750;28;20233;-76
2022/07/14 00:02:50;;;;;;;2.97;2.78;;;26.00;29.60;;;;;;5090003;28;20680;-78
2022/07/14 00:05:17;;;;;;;3.83;2.78;;;25.90;31.10;;;;;;5089536;28;20209;-77
2022/07/14 00:07:44;;;;;;;2.58;2.38;;;26.00;31.60;;;;;;5090606;28;20550;-72
2022/07/14 00:10:11;;;;;;;7.63;3.88;;;26.00;60.70;;;;;;5090564;28;20695;-73
2022/07/14 00:12:38;;;;;;;3.35;2.65;;;26.00;32.60;;;;;;5089381;28;20644;-75
2022/07/14 00:15:06;;;;;;;3.10;2.80;;;26.00;32.60;;;;;;5089915;28;20681;-72
2022/07/14 00:17:33;;;;;;;3.22;3.03;;;26.00;31.40;;;;;;5089261;28;20657;-70
2022/07/14 00:20:01;;;;;;;2.92;2.70;;;25.90;31.40;;;;;;5089847;28;20233;-76
2022/07/14 00:22:29;;;;;;;3.45;3.22;;;25.90;31.60;;;;;;5090106;28;20648;-76
2022/07/14 00:24:56;;;;;;;2.90;2.70;;;25.90;32.50;;;;;;5093897;28;20254;-77
2022/07/14 00:27:23;;;;;;;3.42;2.83;;;25.90;31.50;;;;;;5081988;28;20729;-72
2022/07/14 00:29:50;;;;;;;3.05;2.85;;;25.90;31.70;;;;;;5090458;28;20647;-77
2022/07/14 00:32:17;;;;;;;3.80;2.55;;;25.90;33.30;;;;;;5092855;28;20224;-73
2022/07/14 00:34:43;;;;;;;3.67;3.38;;;25.80;32.30;;;;;;5093449;28;20263;-74
2022/07/14 00:37:12;;;;;;;3.25;2.58;;;25.70;31.60;;;;;;5094023;28;20205;-74
2022/07/14 00:39:57;;;;;;;2.95;2.75;;;25.70;32.10;;;;;;5093269;28;20240;-71
2022/07/14 00:42:29;;;;;;;3.10;2.58;;;25.70;31.70;;;;;;5081406;28;20220;-74
2022/07/14 00:44:56;;;;;;;3.20;3.00;;;25.70;31.00;;;;;;5092993;28;20210;-77
2022/07/14 00:47:23;;;;;;;3.53;3.05;;;25.60;31.90;;;;;;5092977;28;20237;-77
2022/07/14 00:49:53;;;;;;;4.05;3.38;;;25.50;32.40;;;;;;5093319;28;20202;-77
2022/07/14 00:52:21;;;;;;;3.60;3.33;;;25.30;33.00;;;;;;5092666;28;20683;-77
2022/07/14 00:54:48;;;;;;;4.28;3.97;;;25.30;36.30;;;;;;5093394;28;20205;-76
2022/07/14 00:57:15;;;;;;;4.15;3.75;;;25.20;37.50;;;;;;5093017;28;20657;-74
2022/07/14 00:59:42;;;;;;;3.97;3.67;;;25.20;41.60;;;;;;5093495;28;20233;-76
2022/07/14 01:02:09;;;;;;;4.32;3.88;;;25.00;42.40;;;;;;5093092;28;20205;-74
2022/07/14 01:04:36;;;;;;;4.47;4.07;;;25.10;42.40;;;;;;5092445;28;20212;-76
2022/07/14 01:07:04;;;;;;;5.72;4.03;;;25.00;72.70;;;;;;5092859;28;20583;-77
2022/07/14 01:09:32;;;;;;;4.10;3.78;;;25.10;45.40;;;;;;5092599;28;20263;-77
2022/07/14 01:12:00;;;;;;;4.10;3.83;;;25.00;45.00;;;;;;5092508;28;20251;-70
2022/07/14 01:14:28;;;;;;;4.38;3.97;;;25.10;48.60;;;;;;5092506;28;20209;-76
2022/07/14 01:16:56;;;;;;;4.68;4.10;;;24.90;48.00;;;;;;5092614;28;20742;-77
2022/07/14 01:19:23;;;;;;;4.65;4.25;;;25.00;49.40;;;;;;5092034;28;20225;-75
2022/07/14 01:21:52;;;;;;;7.53;4.13;;;25.00;50.00;;;;;;5092585;28;20726;-75
2022/07/14 01:24:19;;;;;;;4.65;4.35;;;24.90;49.60;;;;;;5091723;28;20288;-76
2022/07/14 01:26:46;;;;;;;5.05;4.72;;;24.90;51.20;;;;;;5086555;28;20207;-76
2022/07/14 01:29:13;;;;;;;5.10;4.80;;;24.80;52.90;;;;;;5084813;28;20262;-75
2022/07/14 01:31:40;;;;;;;6.03;5.53;;;24.70;54.70;;;;;;5091867;28;20227;-76
2022/07/14 01:34:07;;;;;;;5.75;5.25;;;24.70;57.40;;;;;;5092171;28;20210;-76
2022/07/14 01:36:34;;;;;;;5.35;4.85;;;24.50;59.90;;;;;;5091816;28;20286;-76
2022/07/14 01:39:04;;;;;;;5.93;5.43;;;24.60;60.50;;;;;;5091984;28;20251;-76
2022/07/14 01:41:31;;;;;;;5.40;5.00;;;24.60;61.90;;;;;;5091790;28;20237;-73
2022/07/14 01:43:58;;;;;;;5.80;5.22;;;24.40;63.60;;;;;;5092099;28;20198;-73
2022/07/14 01:46:25;;;;;;;5.88;5.47;;;24.40;65.00;;;;;;5088940;28;20206;-76
2022/07/14 01:48:52;;;;;;;5.03;4.63;;;24.50;76.70;;;;;;5089241;28;21583;-77
2022/07/14 01:51:20;;;;;;;8.02;5.78;;;24.50;65.80;;;;;;5080288;28;20251;-77
2022/07/14 01:53:47;;;;;;;6.20;5.70;;;24.50;67.80;;;;;;5083600;28;20739;-77
2022/07/14 01:56:15;;;;;;;6.50;5.88;;;24.50;68.80;;;;;;5086218;28;20205;-76
2022/07/14 01:58:42;;;;;;;6.78;6.28;;;24.30;71.90;;;;;;5092195;28;20209;-77
2022/07/14 02:03:57;;;;;;;7.63;6.97;;;24.40;74.80;;;;;;5078926;28;20299;-71
2022/07/14 02:06:24;;;;;;;6.70;6.20;;;24.20;76.60;;;;;;5091517;28;20206;-71
2022/07/14 02:08:52;;;;;;;6.75;6.15;;;24.20;77.10;;;;;;5091569;28;20677;-72
2022/07/14 02:14:05;;;;;;;8.07;7.38;;;24.00;88.30;;;;;;5078100;28;20208;-71
2022/07/14 02:16:32;;;;;;;8.82;6.90;;;24.00;99.90;;;;;;5090988;28;20210;-72
2022/07/14 02:19:00;;;;;;;7.88;7.18;;;23.80;85.70;;;;;;5086596;28;20283;-74
2022/07/14 02:21:27;;;;;;;7.38;6.68;;;23.80;85.60;;;;;;5082092;28;20627;-76
2022/07/14 02:23:55;;;;;;;7.18;6.47;;;23.80;86.60;;;;;;5091295;28;20293;-75
2022/07/14 02:26:24;;;;;;;8.45;7.65;;;23.80;88.20;;;;;;5090832;28;20289;-75
2022/07/14 02:28:51;;;;;;;7.40;6.72;;;23.80;88.90;;;;;;5090851;28;20288;-76
2022/07/14 02:31:18;;;;;;;7.95;6.47;;;23.90;90.00;;;;;;5090854;28;20244;-76
2022/07/14 02:33:45;;;;;;;6.78;6.28;;;23.80;89.60;;;;;;5091437;28;20635;-74
2022/07/14 02:36:13;;;;;;;8.43;7.75;;;23.80;90.50;;;;;;5091747;28;20208;-76
2022/07/14 02:38:40;;;;;;;7.88;6.60;;;23.90;90.50;;;;;;5090947;28;20209;-74
2022/07/14 02:41:07;;;;;;;6.50;6.00;;;23.90;90.60;;;;;;5090864;28;20720;-74
2022/07/14 02:43:36;;;;;;;7.45;6.75;;;23.80;90.50;;;;;;5090444;28;20258;-72
2022/07/14 02:46:03;;;;;;;7.55;6.95;;;23.60;91.20;;;;;;5090480;28;20205;-70
2022/07/14 02:48:30;;;;;;;6.95;6.28;;;23.60;91.30;;;;;;5090921;28;20206;-75
2022/07/14 02:51:00;;;;;;;7.43;6.85;;;23.60;92.00;;;;;;5090809;28;20259;-74
2022/07/14 02:53:27;;;;;;;7.65;7.15;;;23.70;92.30;;;;;;5082777;28;20674;-77
2022/07/14 02:55:55;;;;;;;9.70;6.15;;;23.70;92.20;;;;;;5084395;28;20623;-75
2022/07/14 02:58:23;;;;;;;6.90;6.25;;;23.60;92.90;;;;;;5090348;28;20661;-75
2022/07/14 03:00:52;;;;;;;7.68;6.97;;;23.60;93.30;;;;;;5090970;28;20294;-76
2022/07/14 03:03:20;;;;;;;6.65;6.15;;;23.60;93.20;;;;;;5090096;28;20201;-68
2022/07/14 03:05:47;;;;;;;7.60;6.65;;;23.60;93.40;;;;;;5090785;28;20201;-70
2022/07/14 03:08:14;;;;;;;6.85;6.25;;;23.60;94.10;;;;;;5090975;28;20633;-71
2022/07/14 03:10:41;;;;;;;7.80;7.18;;;23.50;93.40;;;;;;5090979;28;20206;-69
2022/07/14 03:13:09;;;;;;;8.02;7.03;;;23.50;94.30;;;;;;5090139;28;20209;-74
2022/07/14 03:15:37;;;;;;;7.10;6.50;;;23.50;94.40;;;;;;5090251;28;20209;-72
2022/07/14 03:18:05;;;;;;;7.72;7.05;;;23.40;95.50;;;;;;5090636;28;20702;-70
2022/07/14 03:20:32;;;;;;;8.45;7.75;;;23.30;97.00;;;;;;5090325;28;20229;-73
2022/07/14 03:22:59;;;;;;;8.18;7.43;;;23.00;99.70;;;;;;5090468;28;20205;-70
2022/07/14 03:25:26;;;;;;;7.63;6.90;;;23.00;99.90;;;;;;5090169;28;20205;-72
2022/07/14 03:27:54;;;;;;;9.18;6.78;;;23.20;99.90;;;;;;5090426;28;20258;-70
2022/07/14 03:30:21;;;;;;;8.25;7.38;;;23.10;99.90;;;;;;5090063;28;20258;-73
2022/07/14 03:32:48;;;;;;;6.78;6.28;;;23.20;99.90;;;;;;5090565;28;20202;-73
2022/07/14 03:35:17;;;;;;;7.50;6.75;;;23.10;99.90;;;;;;5090441;28;20245;-73
2022/07/14 03:37:44;;;;;;;9.60;8.63;;;23.10;99.90;;;;;;5090623;28;20213;-70
2022/07/14 03:40:12;;;;;;;8.82;8.10;;;23.00;99.90;;;;;;5090369;28;20691;-73
2022/07/14 03:42:39;;;;;;;8.45;7.75;;;22.90;99.90;;;;;;5090559;28;20270;-71
2022/07/14 03:45:07;;;;;;;8.93;8.00;;;22.90;99.90;;;;;;5090586;28;20217;-74
2022/07/14 03:47:34;;;;;;;7.90;7.15;;;22.90;99.90;;;;;;5089896;28;20202;-74
2022/07/14 03:50:01;;;;;;;7.78;7.07;;;22.90;99.90;;;;;;5090301;28;20250;-76
2022/07/14 03:52:29;;;;;;;9.02;8.20;;;23.10;99.90;;;;;;5089576;28;20669;-75
2022/07/14 03:54:57;;;;;;;7.88;7.28;;;23.00;99.90;;;;;;5075880;28;20206;-77
2022/07/14 03:57:24;;;;;;;8.82;7.45;;;22.90;99.90;;;;;;5090852;28;20306;-78
2022/07/14 03:59:51;;;;;;;8.43;7.63;;;23.00;99.90;;;;;;5094037;28;20259;-74
2022/07/14 04:02:18;;;;;;;9.13;8.10;;;22.90;99.90;;;;;;5093607;28;20689;-76
2022/07/14 04:04:45;;;;;;;9.05;8.35;;;22.90;99.90;;;;;;5093651;28;20258;-75
2022/07/14 04:07:12;;;;;;;9.23;8.35;;;22.80;99.90;;;;;;5094286;28;20250;-78
2022/07/14 04:09:40;;;;;;;9.32;8.20;;;22.80;99.90;;;;;;5093455;28;20205;-76
2022/07/14 04:12:08;;;;;;;10.07;9.10;;;23.00;99.90;;;;;;5094166;28;20293;-76
2022/07/14 04:14:35;;;;;;;8.70;8.00;;;22.90;99.90;;;;;;5094279;28;20601;-76
2022/07/14 04:17:02;;;;;;;9.32;8.43;;;22.90;99.90;;;;;;5093807;28;20734;-77
2022/07/14 04:19:29;;;;;;;9.88;9.02;;;22.90;99.90;;;;;;5093378;28;20205;-72
2022/07/14 04:21:56;;;;;;;9.05;8.35;;;22.80;99.90;;;;;;5093634;28;20267;-73
2022/07/14 04:24:23;;;;;;;10.52;9.25;;;22.90;99.90;;;;;;5093362;28;20208;-74
2022/07/14 04:26:52;;;;;;;10.38;9.50;;;22.70;99.90;;;;;;5093624;28;20205;-74
2022/07/14 04:29:19;;;;;;;9.23;8.52;;;22.70;99.90;;;;;;5093283;28;20205;-78
2022/07/14 04:31:46;;;;;;;9.93;8.90;;;22.80;99.90;;;;;;5093525;28;20283;-72
2022/07/14 04:34:12;;;;;;;9.75;8.85;;;22.80;99.90;;;;;;5094295;28;20613;-74
2022/07/14 04:36:39;;;;;;;10.23;9.27;;;22.70;99.90;;;;;;5093635;28;20206;-73
2022/07/14 04:39:07;;;;;;;9.10;8.40;;;22.60;99.90;;;;;;5093115;28;20198;-71
2022/07/14 04:41:36;;;;;;;9.93;8.93;;;22.80;99.90;;;;;;5093213;28;20241;-73
2022/07/14 04:44:05;;;;;;;8.82;8.13;;;22.70;99.90;;;;;;5093347;28;20233;-77
2022/07/14 04:46:32;;;;;;;8.35;7.65;;;22.70;99.90;;;;;;5093045;28;20288;-74
2022/07/14 04:54:27;;;;;;;9.63;8.82;;;22.80;99.90;;;;;;5078103;28;20603;-75
2022/07/14 04:56:55;;;;;;;9.00;8.30;;;22.90;99.90;;;;;;5092684;28;20209;-74
2022/07/14 04:59:23;;;;;;;10.27;9.18;;;23.00;99.90;;;;;;5092361;28;20262;-72
2022/07/14 05:01:50;;;;;;;9.40;8.23;;;23.10;99.90;;;;;;5092773;28;20229;-77
2022/07/14 05:04:17;;;;;;;9.13;8.27;;;23.10;99.90;;;;;;5092762;28;20282;-77
2022/07/14 05:06:46;;;;;;;9.85;9.05;;;23.20;99.90;;;;;;5092805;28;20202;-70
2022/07/14 05:09:14;;;;;;;8.68;7.78;;;23.10;99.90;;;;;;5092533;28;20244;-74
2022/07/14 05:11:42;;;;;;;10.60;9.52;;;23.10;99.90;;;;;;5092803;28;20304;-72
2022/07/14 05:14:09;;;;;;;8.80;7.90;;;22.90;99.90;;;;;;5093145;28;20205;-74
2022/07/14 05:16:38;;;;;;;10.30;8.93;;;22.80;99.90;;;;;;5092090;28;20626;-74
2022/07/14 05:19:05;;;;;;;9.68;8.77;;;22.80;99.90;;;;;;5092641;28;20681;-71
2022/07/14 05:21:32;;;;;;;9.93;9.02;;;23.00;99.90;;;;;;5091929;28;20349;-73
2022/07/14 05:23:59;;;;;;;9.02;8.32;;;22.90;99.90;;;;;;5092243;28;20288;-70
2022/07/14 05:26:26;;;;;;;10.40;9.38;;;23.00;99.90;;;;;;5092338;28;20282;-70
2022/07/14 05:28:53;;;;;;;10.23;9.25;;;23.10;99.90;;;;;;5092350;28;20283;-69
2022/07/14 05:31:20;;;;;;;10.15;8.80;;;23.00;99.90;;;;;;5092098;28;20687;-72
2022/07/14 05:33:49;;;;;;;8.65;7.95;;;23.00;99.90;;;;;;5092359;28;20205;-69
2022/07/14 05:36:16;;;;;;;10.38;9.40;;;23.00;99.90;;;;;;5092028;28;20205;-70
2022/07/14 05:38:43;;;;;;;9.68;8.85;;;23.10;99.90;;;;;;5092650;28;20209;-75
2022/07/14 05:41:10;;;;;;;8.45;7.65;;;23.10;99.90;;;;;;5092739;28;20266;-74
2022/07/14 05:43:37;;;;;;;8.25;7.53;;;23.10;99.90;;;;;;5091651;28;20286;-74
2022/07/14 05:46:06;;;;;;;7.97;7.38;;;23.30;99.90;;;;;;5092258;28;20201;-72
2022/07/14 05:48:33;;;;;;;8.57;7.68;;;23.40;99.90;;;;;;5091820;28;20205;-72
2022/07/14 05:51:06;;;;;;;8.43;7.72;;;23.40;99.90;;;;;;5091656;28;20205;-69
2022/07/14 05:53:33;;;;;;;7.88;7.25;;;23.40;99.90;;;;;;5083560;28;20201;-73
2022/07/14 05:56:00;;;;;;;7.85;7.22;;;23.60;99.90;;;;;;5086266;28;20215;-73
2022/07/14 05:58:27;;;;;;;8.48;7.78;;;23.70;99.90;;;;;;5091471;28;20205;-69
2022/07/14 06:00:55;;;;;;;8.05;7.35;;;23.70;99.90;;;;;;5091647;28;20278;-69
2022/07/14 06:03:22;;;;;;;7.05;6.53;;;23.70;99.90;;;;;;5091312;28;20213;-70
2022/07/14 06:05:49;;;;;;;8.45;7.65;;;23.90;99.90;;;;;;5091557;28;20330;-69
2022/07/14 06:08:17;;;;;;;7.50;6.90;;;24.10;99.90;;;;;;5091465;28;20255;-69
2022/07/14 06:10:44;;;;;;;8.27;7.68;;;24.20;99.90;;;;;;5091999;28;20263;-69
2022/07/14 06:13:12;;;;;;;8.68;7.97;;;24.30;99.90;;;;;;5091779;28;20221;-69
2022/07/14 06:15:39;;;;;;;8.00;7.40;;;24.20;99.90;;;;;;5091057;28;20730;-71
2022/07/14 06:18:06;;;;;;;7.13;6.60;;;24.20;99.90;;;;;;5091302;28;20217;-69
2022/07/14 06:20:33;;;;;;;7.53;6.93;;;24.30;99.90;;;;;;5090166;28;20210;-71
2022/07/14 06:23:00;;;;;;;7.80;7.15;;;24.40;99.90;;;;;;5091628;28;20653;-69
2022/07/14 06:25:28;;;;;;;6.90;6.35;;;24.40;99.90;;;;;;5090813;28;20296;-70
2022/07/14 06:27:55;;;;;;;7.35;6.85;;;24.40;99.90;;;;;;5091453;28;20217;-70
2022/07/14 06:30:22;;;;;;;7.35;6.75;;;24.30;99.90;;;;;;5090856;28;20237;-70
2022/07/14 06:32:49;;;;;;;6.78;6.28;;;24.40;99.90;;;;;;5091295;28;20737;-73
2022/07/14 06:35:16;;;;;;;7.50;6.90;;;24.60;99.90;;;;;;5090289;28;20677;-73
2022/07/14 06:37:43;;;;;;;9.13;7.05;;;24.60;99.90;;;;;;5091614;28;20210;-69
2022/07/14 06:40:10;;;;;;;8.05;7.03;;;24.70;99.90;;;;;;5091538;28;20210;-70
2022/07/14 06:42:39;;;;;;;6.53;6.03;;;24.80;99.90;;;;;;5090939;28;20237;-73
2022/07/14 06:45:08;;;;;;;5.82;5.43;;;25.00;99.90;;;;;;5091019;28;20266;-71
2022/07/14 06:47:35;;;;;;;6.32;5.82;;;25.00;99.90;;;;;;5090638;28;20212;-69
2022/07/14 06:50:02;;;;;;;7.13;6.53;;;25.20;99.90;;;;;;5090956;28;20205;-75
2022/07/14 06:52:29;;;;;;;6.93;6.43;;;25.30;99.90;;;;;;5090394;28;20209;-75
2022/07/14 06:54:58;;;;;;;6.75;5.57;;;25.50;99.90;;;;;;5076688;28;20206;-72
2022/07/14 06:57:26;;;;;;;5.88;5.38;;;25.40;99.90;;;;;;5090447;28;20209;-73
2022/07/14 06:59:54;;;;;;;5.93;5.45;;;25.60;99.90;;;;;;5090402;28;20593;-76
2022/07/14 07:02:21;;;;;;;6.68;6.03;;;25.70;99.90;;;;;;5090553;28;20264;-78
2022/07/14 07:06:43;;;;;;;7.07;6.57;;;25.70;99.90;;;;;;5090518;28;20280;-76
2022/07/14 07:07:36;;;;;;;8.10;7.40;;;25.80;99.90;;;;;;5090168;28;20220;-70
2022/07/14 07:10:04;;;;;;;5.78;5.28;;;26.10;99.90;;;;;;5090421;28;20231;-74
2022/07/14 07:12:31;;;;;;;5.85;5.45;;;26.20;99.90;;;;;;5090112;28;20569;-77
2022/07/14 07:15:00;;;;;;;5.97;5.47;;;26.10;99.90;;;;;;5090530;28;20302;-76
2022/07/14 07:17:27;;;;;;;6.10;5.50;;;26.40;99.90;;;;;;5090468;28;20210;-74
2022/07/14 07:19:54;;;;;;;6.07;5.63;;;26.60;99.90;;;;;;5090418;28;20624;-73
2022/07/14 07:22:20;;;;;;;5.35;4.85;;;27.00;99.90;;;;;;5090129;28;20712;-74
2022/07/14 07:24:47;;;;;;;5.25;4.78;;;27.20;99.90;;;;;;5090354;28;20259;-74
2022/07/14 07:27:14;;;;;;;4.93;4.63;;;27.10;99.90;;;;;;5090506;28;20198;-71
2022/07/14 07:29:41;;;;;;;5.00;4.60;;;26.80;99.90;;;;;;5091241;28;20213;-77
2022/07/14 07:32:11;;;;;;;6.05;5.45;;;26.80;99.90;;;;;;5092615;28;20206;-76
2022/07/14 07:34:38;;;;;;;6.97;5.63;;;27.10;99.90;;;;;;5094508;28;20282;-73
2022/07/14 07:37:06;;;;;;;5.15;4.72;;;27.30;99.90;;;;;;5094380;28;20213;-73
2022/07/14 07:39:34;;;;;;;5.15;4.75;;;27.30;99.90;;;;;;5094172;28;20301;-77
2022/07/14 07:42:02;;;;;;;4.80;4.40;;;27.70;99.90;;;;;;5094571;28;20243;-77
2022/07/14 07:44:30;;;;;;;5.63;5.20;;;27.40;99.90;;;;;;5094010;28;20212;-77
2022/07/14 07:46:58;;;;;;;7.55;4.97;;;27.60;99.90;;;;;;5094589;28;20213;-76
2022/07/14 07:49:26;;;;;;;5.18;4.78;;;27.50;99.90;;;;;;5093983;28;20617;-75
2022/07/14 07:51:58;;;;;;;5.05;4.65;;;27.70;99.90;;;;;;5094515;28;20209;-72
2022/07/14 07:54:26;;;;;;;4.38;4.00;;;28.00;99.60;;;;;;5079585;28;20284;-74
2022/07/14 07:56:53;;;;;;;4.72;4.32;;;28.10;99.00;;;;;;5094509;28;20202;-79
2022/07/14 07:59:20;;;;;;;4.40;4.00;;;28.00;97.50;;;;;;5093759;28;20254;-78
2022/07/14 08:01:47;;;;;;;5.10;4.70;;;28.00;97.60;;;;;;5079836;28;20267;-78
2022/07/14 08:04:15;;;;;;;4.72;4.32;;;28.00;98.20;;;;;;5094061;28;20254;-74
2022/07/14 08:06:44;;;;;;;4.53;4.13;;;28.40;97.60;;;;;;5094432;28;20289;-72
2022/07/14 08:09:12;;;;;;;4.90;3.95;;;28.70;96.90;;;;;;5094308;28;20205;-71
2022/07/14 08:11:40;;;;;;;4.38;4.07;;;28.80;96.30;;;;;;5093557;28;20217;-72
2022/07/14 08:14:47;;;;;;;4.57;4.22;;;29.30;96.40;;;;;;5093933;28;20240;-73
2022/07/14 08:16:56;;;;;;;5.30;4.57;;;29.50;95.60;;;;;;5093782;28;20208;-77
2022/07/14 08:19:23;;;;;;;5.78;5.15;;;30.20;94.00;;;;;;5093394;28;20558;-71
2022/07/14 08:21:51;;;;;;;5.10;3.88;;;29.70;94.20;;;;;;5093661;28;20233;-70
2022/07/14 08:24:18;;;;;;;4.47;4.18;;;29.70;94.40;;;;;;5093221;28;20212;-74
2022/07/14 08:26:46;;;;;;;4.18;3.88;;;29.70;93.30;;;;;;5093485;28;20206;-79
2022/07/14 08:29:13;;;;;;;4.80;4.50;;;30.10;93.10;;;;;;5093972;28;20760;-79
2022/07/14 08:31:41;;;;;;;4.40;4.13;;;30.50;92.80;;;;;;5093084;28;20262;-71
2022/07/14 08:34:08;;;;;;;4.45;4.03;;;30.20;91.90;;;;;;5093884;28;20213;-78
2022/07/14 08:36:35;;;;;;;3.90;3.70;;;30.10;91.30;;;;;;5093415;28;20209;-79
2022/07/14 08:39:05;;;;;;;4.15;3.85;;;29.90;90.20;;;;;;5093273;28;20315;-79
2022/07/14 08:41:32;;;;;;;4.47;4.20;;;29.90;90.10;;;;;;5093187;28;20229;-79
2022/07/14 08:44:00;;;;;;;4.50;4.15;;;29.90;89.90;;;;;;5092201;28;20251;-79
2022/07/14 08:46:28;;;;;;;5.72;4.40;;;30.00;88.00;;;;;;5092713;28;20205;-76
2022/07/14 08:48:55;;;;;;;3.53;3.28;;;30.50;88.20;;;;;;5093255;28;20209;-75
2022/07/14 08:51:23;;;;;;;3.75;3.55;;;30.40;90.10;;;;;;5092777;28;20695;-79
2022/07/14 08:53:51;;;;;;;3.78;3.47;;;30.60;87.00;;;;;;5082288;28;20236;-79
2022/07/14 08:56:20;;;;;;;4.05;3.83;;;30.70;86.40;;;;;;5089491;28;20716;-78
2022/07/14 08:58:48;;;;;;;3.67;3.35;;;30.90;85.20;;;;;;5093990;28;20562;-80
2022/07/14 09:01:16;;;;;;;3.85;3.22;;;30.90;84.80;;;;;;5092501;28;20209;-79
2022/07/14 09:03:43;;;;;;;4.57;4.18;;;31.10;87.20;;;;;;5093237;28;20752;-80
2022/07/14 09:06:10;;;;;;;4.40;4.03;;;31.80;85.70;;;;;;5093275;28;20262;-79
2022/07/14 09:08:56;;;;;;;3.75;3.55;;;33.70;89.60;;;;;;5092677;28;20212;-78
2022/07/14 09:11:24;;;;;;;3.80;3.50;;;34.80;89.60;;;;;;5092936;28;20215;-79
2022/07/14 09:13:51;;;;;;;4.15;3.85;;;34.80;88.50;;;;;;5093550;28;20658;-80
2022/07/14 09:16:21;;;;;;;4.85;4.45;;;34.50;88.50;;;;;;5092608;28;20273;-79
2022/07/14 09:19:06;;;;;;;8.00;3.67;;;33.80;87.50;;;;;;5092827;28;20201;-79
2022/07/14 09:21:33;;;;;;;3.40;3.20;;;34.20;87.30;;;;;;5091873;28;20659;-79
2022/07/14 09:24:01;;;;;;;4.25;4.05;;;34.00;88.80;;;;;;5092888;28;20205;-78
2022/07/14 09:26:29;;;;;;;4.57;3.92;;;33.60;85.10;;;;;;5092121;28;20569;-77
2022/07/14 09:28:56;;;;;;;3.67;3.38;;;33.10;84.70;;;;;;5092124;28;20676;-75
2022/07/14 09:31:25;;;;;;;4.03;3.75;;;33.20;85.80;;;;;;5092129;28;20201;-79
2022/07/14 09:33:55;;;;;;;4.32;4.03;;;33.70;87.20;;;;;;5092318;28;20258;-77
2022/07/14 09:36:29;;;;;;;3.85;3.65;;;33.90;86.50;;;;;;5091907;28;20209;-78
2022/07/14 09:38:59;;;;;;;3.85;3.55;;;33.90;86.20;;;;;;5092256;28;20201;-81
2022/07/14 09:41:26;;;;;;;5.97;4.60;;;35.40;89.70;;;;;;5091850;28;20204;-78
2022/07/14 09:44:09;;;;;;;5.40;3.58;;;36.70;91.20;;;;;;5091849;28;20296;-80
2022/07/14 09:46:47;;;;;;;4.40;4.00;;;37.80;95.20;;;;;;5091980;28;20540;-79
2022/07/14 09:49:14;;;;;;;4.13;3.42;;;41.00;99.90;;;;;;5092290;28;20200;-81
2022/07/14 09:52:03;;;;;;;3.70;3.50;;;41.60;99.90;;;;;;5092705;28;20200;-81
2022/07/14 09:54:45;;;;;;;3.42;3.13;;;43.10;99.90;;;;;;5069971;28;20209;-79
2022/07/14 09:57:26;;;;;;;4.13;3.72;;;42.80;99.90;;;;;;5091998;28;20728;-81
2022/07/14 09:59:57;;;;;;;4.68;4.25;;;40.70;98.90;;;;;;5091858;28;20201;-78
2022/07/14 10:02:28;;;;;;;4.60;4.18;;;39.00;92.90;;;;;;5091522;28;20235;-78
2022/07/14 10:04:58;;;;;;;3.85;3.65;;;37.40;91.60;;;;;;5091803;28;20201;-73
2022/07/14 10:07:26;;;;;;;4.32;3.90;;;37.40;89.50;;;;;;5091477;28;20216;-77
2022/07/14 10:10:02;;;;;;;3.83;3.53;;;37.90;92.90;;;;;;5091480;28;20649;-74
2022/07/14 10:12:30;;;;;;;3.88;3.67;;;40.50;95.90;;;;;;5090928;28;20220;-76
2022/07/14 10:15:02;;;;;;;3.80;3.60;;;41.50;99.90;;;;;;5091597;28;20266;-77
2022/07/14 10:17:30;;;;;;;3.95;3.65;;;43.30;98.50;;;;;;5091202;28;20726;-75
2022/07/14 10:19:58;;;;;;;4.18;3.95;;;43.80;99.90;;;;;;5091251;28;20733;-78
2022/07/14 10:22:26;;;;;;;4.75;3.90;;;42.30;99.70;;;;;;5091294;28;20285;-77
2022/07/14 10:24:53;;;;;;;3.92;3.60;;;44.60;99.90;;;;;;5091239;28;20691;-77
2022/07/14 10:27:21;;;;;;;3.33;3.13;;;43.00;99.90;;;;;;5090657;28;20250;-72
2022/07/14 10:29:52;;;;;;;4.13;3.75;;;43.00;99.90;;;;;;5091300;28;20282;-79
2022/07/14 10:32:35;;;;;;;4.25;3.95;;;45.40;97.90;;;;;;5090704;28;20205;-74
2022/07/14 10:35:14;;;;;;;4.40;4.10;;;45.10;99.90;;;;;;5091363;28;20215;-77
2022/07/14 10:37:51;;;;;;;3.97;3.72;;;45.30;99.90;;;;;;5091532;28;20208;-72
2022/07/14 10:40:29;;;;;;;3.83;3.53;;;45.70;99.90;;;;;;5090497;28;20200;-78
2022/07/14 10:43:05;;;;;;;3.92;3.63;;;42.80;89.80;;;;;;5091126;28;20309;-72
2022/07/14 10:45:33;;;;;;;4.82;4.43;;;38.70;69.20;;;;;;5090626;28;20204;-77
2022/07/14 10:48:01;;;;;;;4.32;4.13;;;36.60;59.70;;;;;;5091183;28;20246;-80
2022/07/14 10:50:29;;;;;;;5.05;4.55;;;35.90;56.30;;;;;;5090731;28;20744;-80
2022/07/14 10:53:04;;;;;;;4.75;4.43;;;35.80;53.50;;;;;;5088101;28;20236;-75
2022/07/14 10:55:37;;;;;;;4.13;3.83;;;35.50;56.10;;;;;;5080898;28;20240;-81
2022/07/14 10:58:30;;;;;;;3.83;3.53;;;35.60;54.60;;;;;;5090657;28;20295;-80
2022/07/14 11:01:01;;;;;;;4.90;4.53;;;35.40;52.60;;;;;;5090831;28;20216;-80
2022/07/14 11:03:49;;;;;;;4.95;4.55;;;35.10;52.70;;;;;;5090315;28;20240;-80
2022/07/14 11:06:23;;;;;;;4.95;4.60;;;35.50;53.00;;;;;;5090122;28;20211;-74
2022/07/14 11:09:32;;;;;;;5.10;4.78;;;35.20;52.10;;;;;;5090740;28;20217;-80
2022/07/14 11:12:09;;;;;;;4.13;3.88;;;35.40;49.40;;;;;;5079877;28;20265;-78
2022/07/14 11:14:40;;;;;;;4.70;4.18;;;35.30;51.50;;;;;;5090475;28;20205;-79
2022/07/14 11:17:08;;;;;;;4.47;4.18;;;35.40;51.70;;;;;;5090632;28;20201;-79
2022/07/14 11:19:39;;;;;;;5.15;4.75;;;35.70;51.70;;;;;;5090226;28;20262;-78
2022/07/14 11:22:27;;;;;;;3.67;3.45;;;35.80;53.00;;;;;;5090374;28;20261;-78
2022/07/14 11:24:56;;;;;;;4.60;4.30;;;35.70;51.80;;;;;;5090337;28;20201;-73
2022/07/14 11:27:28;;;;;;;4.43;4.13;;;35.90;51.20;;;;;;5090009;28;20729;-77
2022/07/14 11:29:58;;;;;;;4.68;4.38;;;35.90;51.70;;;;;;5090513;28;20205;-75
2022/07/14 11:32:32;;;;;;;4.75;4.35;;;36.00;52.60;;;;;;5090174;28;20212;-78
2022/07/14 11:37:58;;;;;;;6.35;4.53;;;35.40;49.50;;;;;;5090593;28;20226;-71
2022/07/14 11:40:43;;;;;;;5.07;4.72;;;35.60;49.70;;;;;;5089886;28;20211;-80
2022/07/14 11:43:40;;;;;;;4.35;4.05;;;35.90;49.60;;;;;;5090525;28;20323;-78
2022/07/14 11:46:09;;;;;;;4.03;3.72;;;36.20;50.20;;;;;;5077233;28;20222;-76
2022/07/14 11:48:38;;;;;;;5.07;4.78;;;36.30;48.50;;;;;;5090148;28;20212;-76
2022/07/14 11:51:10;;;;;;;3.78;3.58;;;36.20;47.40;;;;;;5090545;28;20661;-76
2022/07/14 11:53:38;;;;;;;4.47;4.10;;;36.10;49.20;;;;;;5080716;28;20608;-79
2022/07/14 11:56:07;;;;;;;4.55;4.15;;;36.00;46.70;;;;;;5085384;28;20227;-78
2022/07/14 11:58:37;;;;;;;4.43;4.13;;;36.00;47.30;;;;;;5090031;28;20258;-76
2022/07/14 12:01:05;;;;;;;4.65;4.35;;;35.70;44.70;;;;;;5090123;28;20208;-78
2022/07/14 12:03:33;;;;;;;4.13;3.80;;;35.80;44.90;;;;;;5089574;28;20233;-77
2022/07/14 12:06:02;;;;;;;3.70;3.50;;;36.30;46.60;;;;;;5090059;28;20676;-76
2022/07/14 12:08:32;;;;;;;4.35;4.05;;;36.00;43.10;;;;;;5089477;28;20209;-78
2022/07/14 12:11:03;;;;;;;4.72;4.43;;;35.70;42.80;;;;;;5090600;28;20250;-75
2022/07/14 12:13:30;;;;;;;4.00;3.80;;;35.80;41.40;;;;;;5089453;28;20676;-78
2022/07/14 12:16:02;;;;;;;5.28;4.53;;;35.90;44.60;;;;;;5090104;28;20259;-79
2022/07/14 12:18:31;;;;;;;4.68;4.35;;;36.50;45.00;;;;;;5090320;28;20662;-76
2022/07/14 12:21:00;;;;;;;4.80;4.40;;;36.70;44.30;;;;;;5094250;28;20209;-73
2022/07/14 12:23:28;;;;;;;4.45;4.05;;;36.50;44.20;;;;;;5092948;28;20315;-73
2022/07/14 12:26:01;;;;;;;3.80;3.53;;;36.20;43.10;;;;;;5093700;28;20291;-77
2022/07/14 12:28:28;;;;;;;4.65;4.25;;;36.10;40.70;;;;;;5093286;28;20209;-78
2022/07/14 12:30:57;;;;;;;6.32;5.10;;;36.50;43.30;;;;;;5094058;28;20204;-78
2022/07/14 12:33:28;;;;;;;4.32;4.03;;;36.70;44.50;;;;;;5093477;28;20212;-76
2022/07/14 12:35:57;;;;;;;3.75;3.50;;;36.30;40.80;;;;;;5093367;28;20287;-75
2022/07/14 12:38:25;;;;;;;3.90;3.60;;;36.40;42.80;;;;;;5092746;28;20256;-79
2022/07/14 12:40:54;;;;;;;3.80;3.50;;;36.00;39.60;;;;;;5093420;28;20201;-77
2022/07/14 12:43:22;;;;;;;4.60;4.20;;;36.30;40.20;;;;;;5092925;28;20232;-78
2022/07/14 12:46:05;;;;;;;3.72;3.40;;;36.70;41.20;;;;;;5093088;28;20201;-79
2022/07/14 12:48:34;;;;;;;4.97;3.28;;;37.20;41.80;;;;;;5093121;28;20261;-79
2022/07/14 12:51:20;;;;;;;4.38;3.60;;;37.40;41.40;;;;;;5093116;28;20204;-78
2022/07/14 12:54:01;;;;;;;3.13;2.92;;;37.40;41.00;;;;;;5082828;28;20275;-81
2022/07/14 12:56:30;;;;;;;3.90;3.60;;;37.50;39.40;;;;;;5090776;28;20656;-73
2022/07/14 12:59:00;;;;;;;3.55;3.35;;;37.50;41.20;;;;;;5093265;28;20204;-77
2022/07/14 13:01:27;;;;;;;3.63;3.42;;;37.00;38.90;;;;;;5092481;28;20205;-79
2022/07/14 13:03:56;;;;;;;3.50;3.30;;;37.10;39.20;;;;;;5093004;28;20228;-80
2022/07/14 13:06:23;;;;;;;7.53;4.25;;;37.50;39.90;;;;;;5092004;28;20201;-72
2022/07/14 13:08:51;;;;;;;3.78;3.58;;;37.50;40.80;;;;;;5093259;28;20231;-78